createdAt,value
2018-07-25T00:00:10.517Z,7.50
2018-07-25T00:01:10.517Z,7.70
2018-07-25T00:02:10.515Z,7.30
2018-07-25T00:03:10.564Z,7.50
2018-07-25T00:04:10.514Z,7.80
2018-07-25T00:05:10.519Z,7.80
2018-07-25T00:06:10.530Z,7.80
2018-07-25T00:07:10.513Z,7.90
2018-07-25T00:08:10.510Z,7.60
2018-07-25T00:09:10.510Z,7.70
2018-07-25T00:10:10.511Z,7.50
2018-07-25T00:11:10.511Z,7.10
2018-07-25T00:12:10.509Z,8.20
2018-07-25T00:13:10.512Z,7.50
2018-07-25T00:14:10.515Z,8.00
2018-07-25T00:15:10.507Z,7.80
2018-07-25T00:16:10.510Z,7.70
2018-07-25T00:17:10.506Z,7.70
2018-07-25T00:18:10.508Z,7.90
2018-07-25T00:19:10.505Z,7.90
2018-07-25T00:20:10.505Z,7.40
2018-07-25T00:21:10.502Z,8.10
2018-07-25T00:22:10.503Z,7.60
2018-07-25T00:23:10.505Z,7.30
2018-07-25T00:24:10.501Z,7.30
2018-07-25T00:25:10.501Z,7.80
2018-07-25T00:26:10.499Z,8.00
2018-07-25T00:27:10.509Z,8.20
2018-07-25T00:28:10.616Z,8.30
2018-07-25T00:29:10.500Z,8.00
2018-07-25T00:30:10.499Z,7.90
2018-07-25T00:31:10.523Z,8.00
2018-07-25T00:32:10.499Z,8.10
2018-07-25T00:33:10.494Z,8.70
2018-07-25T00:34:10.499Z,7.80
2018-07-25T00:35:10.493Z,7.40
2018-07-25T00:36:10.493Z,7.60
2018-07-25T00:37:10.495Z,8.10
2018-07-25T00:38:10.495Z,7.40
2018-07-25T00:39:10.496Z,6.80
2018-07-25T00:40:10.489Z,7.90
2018-07-25T00:41:10.487Z,8.10
2018-07-25T00:42:10.492Z,8.00
2018-07-25T00:43:10.485Z,7.30
2018-07-25T00:44:10.482Z,7.90
2018-07-25T00:45:10.492Z,7.70
2018-07-25T00:46:10.485Z,7.90
2018-07-25T00:47:10.482Z,7.70
2018-07-25T00:48:10.479Z,7.40
2018-07-25T00:49:10.480Z,7.40
2018-07-25T00:50:10.480Z,8.00
2018-07-25T00:51:10.477Z,8.30
2018-07-25T00:52:10.482Z,8.30
2018-07-25T00:53:10.480Z,7.60
2018-07-25T00:54:10.476Z,8.10
2018-07-25T00:55:10.475Z,8.00
2018-07-25T00:56:10.477Z,7.70
2018-07-25T00:57:10.476Z,8.00
2018-07-25T00:58:10.473Z,8.10
2018-07-25T00:59:10.479Z,8.10
2018-07-25T01:00:10.474Z,8.20
2018-07-25T01:01:10.474Z,8.10
2018-07-25T01:02:10.501Z,8.30
2018-07-25T01:03:10.471Z,8.10
2018-07-25T01:04:10.464Z,8.00
2018-07-25T01:05:10.471Z,7.80
2018-07-25T01:06:10.464Z,8.50
2018-07-25T01:07:10.462Z,8.00
2018-07-25T01:08:10.462Z,8.30
2018-07-25T01:09:10.459Z,8.20
2018-07-25T01:10:10.470Z,8.50
2018-07-25T01:11:10.464Z,8.00
2018-07-25T01:12:10.463Z,8.40
2018-07-25T01:13:10.464Z,8.40
2018-07-25T01:14:10.455Z,8.00
2018-07-25T01:15:10.454Z,8.50
2018-07-25T01:16:10.451Z,8.00
2018-07-25T01:17:10.458Z,9.10
2018-07-25T01:18:10.456Z,8.60
2018-07-25T01:19:10.454Z,8.40
2018-07-25T01:20:10.449Z,8.80
2018-07-25T01:21:10.450Z,9.00
2018-07-25T01:22:10.445Z,8.10
2018-07-25T01:23:10.449Z,8.30
2018-07-25T01:24:10.443Z,8.40
2018-07-25T01:25:10.447Z,8.50
2018-07-25T01:26:10.492Z,9.00
2018-07-25T01:27:10.445Z,8.70
2018-07-25T01:28:10.439Z,8.70
2018-07-25T01:29:10.438Z,9.10
2018-07-25T01:30:10.439Z,8.50
2018-07-25T01:31:10.436Z,8.10
2018-07-25T01:32:10.436Z,8.50
2018-07-25T01:33:10.440Z,8.20
2018-07-25T01:34:10.434Z,8.90
2018-07-25T01:35:10.432Z,8.80
2018-07-25T01:36:10.432Z,8.70
2018-07-25T01:37:10.429Z,8.70
2018-07-25T01:38:10.430Z,8.20
2018-07-25T01:39:10.426Z,8.60
2018-07-25T01:40:10.425Z,8.40
2018-07-25T01:41:10.428Z,9.00
2018-07-25T01:42:10.426Z,8.50
2018-07-25T01:43:10.421Z,9.10
2018-07-25T01:44:10.424Z,8.80
2018-07-25T01:45:10.425Z,8.90
2018-07-25T01:46:10.421Z,8.70
2018-07-25T01:47:10.417Z,8.40
2018-07-25T01:48:10.415Z,8.30
2018-07-25T01:49:10.416Z,8.50
2018-07-25T01:50:10.411Z,8.70
2018-07-25T01:51:10.411Z,8.20
2018-07-25T01:52:10.410Z,8.50
2018-07-25T01:53:10.412Z,8.50
2018-07-25T01:54:10.407Z,8.70
2018-07-25T01:55:10.415Z,9.00
2018-07-25T01:56:10.411Z,8.30
2018-07-25T01:57:10.407Z,9.10
2018-07-25T01:58:10.404Z,8.60
2018-07-25T01:59:10.401Z,8.90
2018-07-25T02:00:10.400Z,8.70
2018-07-25T02:01:10.399Z,8.60
2018-07-25T02:02:10.398Z,8.60
2018-07-25T02:03:10.395Z,9.00
2018-07-25T02:04:10.392Z,9.00
2018-07-25T02:05:10.395Z,9.10
2018-07-25T02:06:10.395Z,9.10
2018-07-25T02:07:10.391Z,8.80
2018-07-25T02:08:10.442Z,8.60
2018-07-25T02:09:10.394Z,8.50
2018-07-25T02:10:10.391Z,8.80
2018-07-25T02:11:10.387Z,8.40
2018-07-25T02:12:10.391Z,8.90
2018-07-25T02:13:10.380Z,8.90
2018-07-25T02:14:10.379Z,9.00
2018-07-25T02:15:10.382Z,8.80
2018-07-25T02:16:10.376Z,8.80
2018-07-25T02:17:10.376Z,8.60
2018-07-25T02:18:10.378Z,8.40
2018-07-25T02:19:10.374Z,8.80
2018-07-25T02:20:10.371Z,8.40
2018-07-25T02:21:10.376Z,8.60
2018-07-25T02:22:10.366Z,8.30
2018-07-25T02:23:10.366Z,8.00
2018-07-25T02:24:10.369Z,8.40
2018-07-25T02:25:10.368Z,8.20
2018-07-25T02:26:10.366Z,8.20
2018-07-25T02:27:10.360Z,8.50
2018-07-25T02:28:10.360Z,8.90
2018-07-25T02:29:10.362Z,9.40
2018-07-25T02:30:10.361Z,9.30
2018-07-25T02:31:10.357Z,8.70
2018-07-25T02:32:10.359Z,8.80
2018-07-25T02:33:10.353Z,9.20
2018-07-25T02:34:10.351Z,9.60
2018-07-25T02:35:10.354Z,9.10
2018-07-25T02:36:10.352Z,9.40
2018-07-25T02:37:10.346Z,8.90
2018-07-25T02:38:10.343Z,8.80
2018-07-25T02:39:10.344Z,8.40
2018-07-25T02:40:10.346Z,8.90
2018-07-25T02:41:10.340Z,8.60
2018-07-25T02:42:10.338Z,9.30
2018-07-25T02:43:10.342Z,8.70
2018-07-25T02:44:10.341Z,8.90
2018-07-25T02:45:10.334Z,8.70
2018-07-25T02:46:10.336Z,9.00
2018-07-25T02:47:10.332Z,8.60
2018-07-25T02:48:10.354Z,9.50
2018-07-25T02:49:10.335Z,8.60
2018-07-25T02:50:10.326Z,8.30
2018-07-25T02:51:10.324Z,8.80
2018-07-25T02:52:10.321Z,8.40
2018-07-25T02:53:10.323Z,8.60
2018-07-25T02:54:10.320Z,9.50
2018-07-25T02:55:10.321Z,9.60
2018-07-25T02:56:10.318Z,9.00
2018-07-25T02:57:10.315Z,8.40
2018-07-25T02:58:10.311Z,8.80
2018-07-25T02:59:10.316Z,9.00
2018-07-25T03:00:10.309Z,8.80
2018-07-25T03:01:10.309Z,8.60
2018-07-25T03:02:10.311Z,9.60
2018-07-25T03:03:10.343Z,8.80
2018-07-25T03:04:10.299Z,10.10
2018-07-25T03:05:10.308Z,9.10
2018-07-25T03:06:10.296Z,10.20
2018-07-25T03:07:10.301Z,9.50
2018-07-25T03:08:10.293Z,9.20
2018-07-25T03:09:10.425Z,9.10
2018-07-25T03:10:10.290Z,9.40
2018-07-25T03:11:10.301Z,9.60
2018-07-25T03:12:10.298Z,9.80
2018-07-25T03:13:10.286Z,9.60
2018-07-25T03:14:10.313Z,9.30
2018-07-25T03:15:10.286Z,9.20
2018-07-25T03:16:10.279Z,9.20
2018-07-25T03:17:10.277Z,9.10
2018-07-25T03:18:10.280Z,8.20
2018-07-25T03:19:10.281Z,8.20
2018-07-25T03:20:10.272Z,8.80
2018-07-25T03:21:10.276Z,8.20
2018-07-25T03:22:10.271Z,8.70
2018-07-25T03:23:10.272Z,9.00
2018-07-25T03:24:10.267Z,9.10
2018-07-25T03:25:10.270Z,9.70
2018-07-25T03:26:10.263Z,9.90
2018-07-25T03:27:10.259Z,9.30
2018-07-25T03:28:10.256Z,9.90
2018-07-25T03:29:10.257Z,9.40
2018-07-25T03:30:10.261Z,9.40
2018-07-25T03:31:10.255Z,8.50
2018-07-25T03:32:10.253Z,9.40
2018-07-25T03:33:10.250Z,8.70
2018-07-25T03:34:10.245Z,9.60
2018-07-25T03:35:10.244Z,9.30
2018-07-25T03:36:10.240Z,9.40
2018-07-25T03:37:10.239Z,9.30
2018-07-25T03:38:10.237Z,10.30
2018-07-25T03:39:10.240Z,9.70
2018-07-25T03:40:10.235Z,9.80
2018-07-25T03:41:10.232Z,9.80
2018-07-25T03:42:10.237Z,9.60
2018-07-25T03:43:10.227Z,10.00
2018-07-25T03:44:10.228Z,10.20
2018-07-25T03:45:10.228Z,9.90
2018-07-25T03:46:10.223Z,9.50
2018-07-25T03:47:10.219Z,9.70
2018-07-25T03:48:10.258Z,9.60
2018-07-25T03:49:10.215Z,9.70
2018-07-25T03:50:10.216Z,10.10
2018-07-25T03:51:10.214Z,10.30
2018-07-25T03:52:10.211Z,10.20
2018-07-25T03:53:10.212Z,10.80
2018-07-25T03:54:10.206Z,10.10
2018-07-25T03:55:10.213Z,10.40
2018-07-25T03:56:10.202Z,10.30
2018-07-25T03:57:10.201Z,10.50
2018-07-25T03:58:10.197Z,10.50
2018-07-25T03:59:10.195Z,10.40
2018-07-25T04:00:10.193Z,11.10
2018-07-25T04:01:10.191Z,10.20
2018-07-25T04:02:10.190Z,10.50
2018-07-25T04:03:10.188Z,9.80
2018-07-25T04:04:10.190Z,9.90
2018-07-25T04:05:10.189Z,10.80
2018-07-25T04:06:10.181Z,10.40
2018-07-25T04:07:10.178Z,9.90
2018-07-25T04:08:10.212Z,10.30
2018-07-25T04:09:10.217Z,10.20
2018-07-25T04:10:10.172Z,10.10
2018-07-25T04:11:10.174Z,10.60
2018-07-25T04:12:10.169Z,10.40
2018-07-25T04:13:10.167Z,10.10
2018-07-25T04:14:10.168Z,10.60
2018-07-25T04:15:10.165Z,10.10
2018-07-25T04:16:10.160Z,11.40
2018-07-25T04:17:10.160Z,10.20
2018-07-25T04:18:10.158Z,11.10
2018-07-25T04:19:10.156Z,10.60
2018-07-25T04:20:10.154Z,11.00
2018-07-25T04:21:10.150Z,11.00
2018-07-25T04:22:10.148Z,10.20
2018-07-25T04:23:10.147Z,10.20
2018-07-25T04:24:10.146Z,10.60
2018-07-25T04:25:10.143Z,11.30
2018-07-25T04:26:10.145Z,11.50
2018-07-25T04:27:10.141Z,10.70
2018-07-25T04:28:10.135Z,11.30
2018-07-25T04:29:10.139Z,10.60
2018-07-25T04:30:10.158Z,11.00
2018-07-25T04:31:10.132Z,10.80
2018-07-25T04:32:10.128Z,11.10
2018-07-25T04:33:10.126Z,11.50
2018-07-25T04:34:10.125Z,11.40
2018-07-25T04:35:10.126Z,10.70
2018-07-25T04:36:10.120Z,10.90
2018-07-25T04:37:10.117Z,11.40
2018-07-25T04:38:10.118Z,11.00
2018-07-25T04:39:10.115Z,10.80
2018-07-25T04:40:10.113Z,10.60
2018-07-25T04:41:10.110Z,11.10
2018-07-25T04:42:10.115Z,10.40
2018-07-25T04:43:10.109Z,10.30
2018-07-25T04:44:10.107Z,10.10
2018-07-25T04:45:10.105Z,9.60
2018-07-25T04:46:10.122Z,10.50
2018-07-25T04:47:10.111Z,10.00
2018-07-25T04:48:10.103Z,10.20
2018-07-25T04:49:10.103Z,10.50
2018-07-25T04:50:10.108Z,10.10
2018-07-25T04:51:10.110Z,10.30
2018-07-25T04:52:10.106Z,10.10
2018-07-25T04:53:10.104Z,10.40
2018-07-25T04:54:10.104Z,10.40
2018-07-25T04:55:10.108Z,9.90
2018-07-25T04:56:10.184Z,9.80
2018-07-25T04:57:10.111Z,10.10
2018-07-25T04:58:10.114Z,9.60
2018-07-25T04:59:10.110Z,9.20
2018-07-25T05:00:10.114Z,9.50
2018-07-25T05:01:10.112Z,9.80
2018-07-25T05:02:10.120Z,9.50
2018-07-25T05:03:10.115Z,9.90
2018-07-25T05:04:10.116Z,9.40
2018-07-25T05:05:10.120Z,9.70
2018-07-25T05:06:10.123Z,10.10
2018-07-25T05:07:10.187Z,10.30
2018-07-25T05:08:10.127Z,11.20
2018-07-25T05:09:10.129Z,10.30
2018-07-25T05:10:10.132Z,10.50
2018-07-25T05:11:10.140Z,10.30
2018-07-25T05:12:10.139Z,11.70
2018-07-25T05:13:10.140Z,10.50
2018-07-25T05:14:10.143Z,10.40
2018-07-25T05:15:10.156Z,9.90
2018-07-25T05:16:10.158Z,10.60
2018-07-25T05:17:10.154Z,10.90
2018-07-25T05:18:10.162Z,9.90
2018-07-25T05:19:10.160Z,10.50
2018-07-25T05:20:10.166Z,10.00
2018-07-25T05:21:10.180Z,10.60
2018-07-25T05:22:10.173Z,11.20
2018-07-25T05:23:10.180Z,10.00
2018-07-25T05:24:10.175Z,10.20
2018-07-25T05:25:10.174Z,10.50
2018-07-25T05:26:10.181Z,10.70
2018-07-25T05:27:10.181Z,10.50
2018-07-25T05:28:10.182Z,11.30
2018-07-25T05:29:10.188Z,10.50
2018-07-25T05:30:10.193Z,9.80
2018-07-25T05:31:10.189Z,10.40
2018-07-25T05:32:10.191Z,10.50
2018-07-25T05:33:10.196Z,9.60
2018-07-25T05:34:10.194Z,9.80
2018-07-25T05:35:10.197Z,10.30
2018-07-25T05:36:10.200Z,9.50
2018-07-25T05:37:10.201Z,10.70
2018-07-25T05:38:10.229Z,9.60
2018-07-25T05:39:10.206Z,9.80
2018-07-25T05:40:10.210Z,10.10
2018-07-25T05:41:10.209Z,10.20
2018-07-25T05:42:10.209Z,9.70
2018-07-25T05:43:10.210Z,9.90
2018-07-25T05:44:10.218Z,9.70
2018-07-25T05:45:10.213Z,9.30
2018-07-25T05:46:10.219Z,9.60
2018-07-25T05:47:10.218Z,10.00
2018-07-25T05:48:10.220Z,9.90
2018-07-25T05:49:10.220Z,10.00
2018-07-25T05:50:10.219Z,10.00
2018-07-25T05:51:10.220Z,9.10
2018-07-25T05:52:10.222Z,9.10
2018-07-25T05:53:10.225Z,9.50
2018-07-25T05:54:10.226Z,10.20
2018-07-25T05:55:10.229Z,10.40
2018-07-25T05:56:10.235Z,10.50
2018-07-25T05:57:10.228Z,10.50
2018-07-25T05:58:10.230Z,10.70
2018-07-25T05:59:10.235Z,10.40
2018-07-25T06:00:10.239Z,11.10
2018-07-25T06:01:10.234Z,11.50
2018-07-25T06:02:10.237Z,12.90
2018-07-25T06:03:10.293Z,11.50
2018-07-25T06:04:10.284Z,10.90
2018-07-25T06:05:10.240Z,11.20
2018-07-25T06:06:10.295Z,10.70
2018-07-25T06:07:10.245Z,11.00
2018-07-25T06:08:10.251Z,11.20
2018-07-25T06:09:10.271Z,10.70
2018-07-25T06:10:10.253Z,11.00
2018-07-25T06:11:10.268Z,11.40
2018-07-25T06:12:10.255Z,10.40
2018-07-25T06:13:10.297Z,11.30
2018-07-25T06:14:10.305Z,11.40
2018-07-25T06:15:10.255Z,11.30
2018-07-25T06:16:10.263Z,11.70
2018-07-25T06:17:10.264Z,10.70
2018-07-25T06:18:10.259Z,10.90
2018-07-25T06:19:10.262Z,10.40
2018-07-25T06:20:10.269Z,11.60
2018-07-25T06:21:10.264Z,10.80
2018-07-25T06:22:10.264Z,11.00
2018-07-25T06:23:10.269Z,10.90
2018-07-25T06:24:10.273Z,11.40
2018-07-25T06:25:10.269Z,11.10
2018-07-25T06:26:10.272Z,11.00
2018-07-25T06:27:10.275Z,11.20
2018-07-25T06:28:10.275Z,10.10
2018-07-25T06:29:10.276Z,10.30
2018-07-25T06:30:10.283Z,10.10
2018-07-25T06:31:10.295Z,10.40
2018-07-25T06:32:10.285Z,10.60
2018-07-25T06:33:10.283Z,10.30
2018-07-25T06:34:10.286Z,10.10
2018-07-25T06:35:10.286Z,10.90
2018-07-25T06:36:10.292Z,10.80
2018-07-25T06:37:10.291Z,9.80
2018-07-25T06:38:10.292Z,11.10
2018-07-25T06:39:10.293Z,10.50
2018-07-25T06:40:10.299Z,10.20
2018-07-25T06:41:10.303Z,10.30
2018-07-25T06:42:10.301Z,10.40
2018-07-25T06:43:10.341Z,9.90
2018-07-25T06:44:10.331Z,10.20
2018-07-25T06:45:10.304Z,10.30
2018-07-25T06:46:10.306Z,10.00
2018-07-25T06:47:10.314Z,10.40
2018-07-25T06:48:10.310Z,10.40
2018-07-25T06:49:10.315Z,11.10
2018-07-25T06:50:10.325Z,10.00
2018-07-25T06:51:10.317Z,10.20
2018-07-25T06:52:10.323Z,11.10
2018-07-25T06:53:10.330Z,10.70
2018-07-25T06:54:10.324Z,10.50
2018-07-25T06:55:10.326Z,10.80
2018-07-25T06:56:10.383Z,9.70
2018-07-25T06:57:10.383Z,10.30
2018-07-25T06:58:10.337Z,11.00
2018-07-25T06:59:10.338Z,10.30
2018-07-25T07:00:10.334Z,10.30
2018-07-25T07:01:10.335Z,9.90
2018-07-25T07:02:10.338Z,10.40
2018-07-25T07:03:10.364Z,10.10
2018-07-25T07:04:10.349Z,10.20
2018-07-25T07:05:10.349Z,11.00
2018-07-25T07:06:10.383Z,10.90
2018-07-25T07:07:10.356Z,10.90
2018-07-25T07:08:10.353Z,10.90
2018-07-25T07:09:10.359Z,10.20
2018-07-25T07:10:10.356Z,10.50
2018-07-25T07:11:10.364Z,10.20
2018-07-25T07:12:10.383Z,10.30
2018-07-25T07:13:10.363Z,10.30
2018-07-25T07:14:10.367Z,10.20
2018-07-25T07:15:10.421Z,11.20
2018-07-25T07:16:10.371Z,11.50
2018-07-25T07:17:10.379Z,10.70
2018-07-25T07:18:10.382Z,10.60
2018-07-25T07:19:10.380Z,10.30
2018-07-25T07:20:10.381Z,10.90
2018-07-25T07:21:10.389Z,10.50
2018-07-25T07:22:10.386Z,10.20
2018-07-25T07:23:10.388Z,11.40
2018-07-25T07:24:10.524Z,10.40
2018-07-25T07:25:10.400Z,10.30
2018-07-25T07:26:10.409Z,11.20
2018-07-25T07:27:10.450Z,10.10
2018-07-25T07:28:10.407Z,10.30
2018-07-25T07:29:10.403Z,11.10
2018-07-25T07:30:10.406Z,11.50
2018-07-25T07:31:10.409Z,11.10
2018-07-25T07:32:10.411Z,10.30
2018-07-25T07:33:10.414Z,11.00
2018-07-25T07:34:10.418Z,10.40
2018-07-25T07:35:10.436Z,10.50
2018-07-25T07:36:10.438Z,9.50
2018-07-25T07:37:10.431Z,9.40
2018-07-25T07:38:10.428Z,9.80
2018-07-25T07:39:10.438Z,10.50
2018-07-25T07:40:10.436Z,9.30
2018-07-25T07:41:10.441Z,9.40
2018-07-25T07:42:10.440Z,9.00
2018-07-25T07:43:10.443Z,9.50
2018-07-25T07:44:10.520Z,9.60
2018-07-25T07:45:10.447Z,9.40
2018-07-25T07:46:10.456Z,9.70
2018-07-25T07:47:10.458Z,10.00
2018-07-25T07:48:10.456Z,9.50
2018-07-25T07:49:10.465Z,9.50
2018-07-25T07:50:10.462Z,10.30
2018-07-25T07:51:10.466Z,9.60
2018-07-25T07:52:10.469Z,9.60
2018-07-25T07:53:10.476Z,9.70
2018-07-25T07:54:10.476Z,9.90
2018-07-25T07:55:10.479Z,9.90
2018-07-25T07:56:10.481Z,10.50
2018-07-25T07:57:10.486Z,9.70
2018-07-25T07:58:10.488Z,9.70
2018-07-25T07:59:10.491Z,9.40
2018-07-25T08:00:10.495Z,10.20
2018-07-25T08:01:10.497Z,9.50
2018-07-25T08:02:10.505Z,9.20
2018-07-25T08:03:10.511Z,9.30
2018-07-25T08:04:10.506Z,8.80
2018-07-25T08:05:10.518Z,8.40
2018-07-25T08:06:10.515Z,8.40
2018-07-25T08:07:10.518Z,8.30
2018-07-25T08:08:10.524Z,9.00
2018-07-25T08:09:10.526Z,10.10
2018-07-25T08:10:10.527Z,9.10
2018-07-25T08:11:10.544Z,9.80
2018-07-25T08:12:10.537Z,9.10
2018-07-25T08:13:10.540Z,9.60
2018-07-25T08:14:10.543Z,9.50
2018-07-25T08:15:10.549Z,9.30
2018-07-25T08:16:10.553Z,10.70
2018-07-25T08:17:10.555Z,9.80
2018-07-25T08:18:10.566Z,10.00
2018-07-25T08:19:10.578Z,10.10
2018-07-25T08:20:10.569Z,9.90
2018-07-25T08:21:10.668Z,9.10
2018-07-25T08:22:10.574Z,9.40
2018-07-25T08:23:10.578Z,9.30
2018-07-25T08:24:10.582Z,9.30
2018-07-25T08:25:10.589Z,10.50
2018-07-25T08:26:10.590Z,9.70
2018-07-25T08:27:10.594Z,9.10
2018-07-25T08:28:10.601Z,9.10
2018-07-25T08:29:10.605Z,9.80
2018-07-25T08:30:10.605Z,10.10
2018-07-25T08:31:10.607Z,9.20
2018-07-25T08:32:10.614Z,8.70
2018-07-25T08:33:10.615Z,8.60
2018-07-25T08:34:10.622Z,9.10
2018-07-25T08:35:10.625Z,8.80
2018-07-25T08:36:10.632Z,9.20
2018-07-25T08:37:10.633Z,9.50
2018-07-25T08:38:10.641Z,9.40
2018-07-25T08:39:10.641Z,9.30
2018-07-25T08:40:10.649Z,9.20
2018-07-25T08:41:10.708Z,9.90
2018-07-25T08:42:10.653Z,9.10
2018-07-25T08:43:10.659Z,8.80
2018-07-25T08:44:10.664Z,9.30
2018-07-25T08:45:10.665Z,9.30
2018-07-25T08:46:10.671Z,8.70
2018-07-25T08:47:10.673Z,8.70
2018-07-25T08:48:10.677Z,8.90
2018-07-25T08:49:10.686Z,9.30
2018-07-25T08:50:10.691Z,9.30
2018-07-25T08:51:10.692Z,9.40
2018-07-25T08:52:10.699Z,9.20
2018-07-25T08:53:10.698Z,8.80
2018-07-25T08:54:10.704Z,9.00
2018-07-25T08:55:10.707Z,9.70
2018-07-25T08:56:10.716Z,8.80
2018-07-25T08:57:10.715Z,9.00
2018-07-25T08:58:10.722Z,9.30
2018-07-25T08:59:10.725Z,8.90
2018-07-25T09:00:10.729Z,9.40
2018-07-25T09:01:10.733Z,8.70
2018-07-25T09:02:10.741Z,8.40
2018-07-25T09:03:10.743Z,8.60
2018-07-25T09:04:10.746Z,9.50
2018-07-25T09:05:10.757Z,9.20
2018-07-25T09:06:10.756Z,8.80
2018-07-25T09:07:10.760Z,9.10
2018-07-25T09:08:10.769Z,8.50
2018-07-25T09:09:10.772Z,8.50
2018-07-25T09:10:10.774Z,8.10
2018-07-25T09:11:10.779Z,8.60
2018-07-25T09:12:10.785Z,8.20
2018-07-25T09:13:10.841Z,9.20
2018-07-25T09:14:10.792Z,8.30
2018-07-25T09:15:10.799Z,9.30
2018-07-25T09:16:10.801Z,8.30
2018-07-25T09:17:10.809Z,8.30
2018-07-25T09:18:10.867Z,9.20
2018-07-25T09:19:10.826Z,8.80
2018-07-25T09:20:10.822Z,8.30
2018-07-25T09:21:10.826Z,8.50
2018-07-25T09:22:10.832Z,8.80
2018-07-25T09:23:10.841Z,9.30
2018-07-25T09:24:10.840Z,9.10
2018-07-25T09:25:10.912Z,8.30
2018-07-25T09:26:10.850Z,8.90
2018-07-25T09:27:10.862Z,9.10
2018-07-25T09:28:10.865Z,8.90
2018-07-25T09:29:10.867Z,9.10
2018-07-25T09:30:10.871Z,9.40
2018-07-25T09:31:10.876Z,8.30
2018-07-25T09:32:10.882Z,8.90
2018-07-25T09:33:10.885Z,8.40
2018-07-25T09:34:11.094Z,8.60
2018-07-25T09:35:10.896Z,8.40
2018-07-25T09:36:10.902Z,8.40
2018-07-25T09:37:10.910Z,8.40
2018-07-25T09:38:10.915Z,9.00
2018-07-25T09:39:10.919Z,7.90
2018-07-25T09:40:10.924Z,8.40
2018-07-25T09:41:10.930Z,7.50
2018-07-25T09:42:10.935Z,6.30
2018-07-25T09:43:10.941Z,6.50
2018-07-25T09:44:10.948Z,6.10
2018-07-25T09:45:10.949Z,6.60
2018-07-25T09:46:10.975Z,5.90
2018-07-25T09:47:10.960Z,6.90
2018-07-25T09:48:10.963Z,6.10
2018-07-25T09:49:10.968Z,5.70
2018-07-25T09:50:10.978Z,5.60
2018-07-25T09:51:10.979Z,5.80
2018-07-25T09:52:10.988Z,5.80
2018-07-25T09:53:11.062Z,5.80
2018-07-25T09:54:10.993Z,5.20
2018-07-25T09:55:11.000Z,5.20
2018-07-25T09:56:11.003Z,5.30
2018-07-25T09:57:11.008Z,5.60
2018-07-25T09:58:11.031Z,5.20
2018-07-25T09:59:11.042Z,5.80
2018-07-25T10:00:11.032Z,5.20
2018-07-25T10:01:11.131Z,5.10
2018-07-25T10:02:11.031Z,5.00
2018-07-25T10:03:11.037Z,5.50
2018-07-25T10:04:11.038Z,4.90
2018-07-25T10:05:11.045Z,5.30
2018-07-25T10:06:11.056Z,5.90
2018-07-25T10:07:11.069Z,5.90
2018-07-25T10:08:11.058Z,6.10
2018-07-25T10:09:11.072Z,6.50
2018-07-25T10:10:11.084Z,6.50
2018-07-25T10:11:11.099Z,5.70
2018-07-25T10:12:11.084Z,6.20
2018-07-25T10:13:11.088Z,6.30
2018-07-25T10:14:11.085Z,6.20
2018-07-25T10:15:11.197Z,6.10
2018-07-25T10:16:11.097Z,6.30
2018-07-25T10:17:11.105Z,6.70
2018-07-25T10:18:11.107Z,7.10
2018-07-25T10:19:11.118Z,7.20
2018-07-25T10:20:11.113Z,6.80
2018-07-25T10:21:11.119Z,6.40
2018-07-25T10:22:11.131Z,6.70
2018-07-25T10:23:11.127Z,6.70
2018-07-25T10:24:11.135Z,6.60
2018-07-25T10:25:11.137Z,6.10
2018-07-25T10:26:11.151Z,6.20
2018-07-25T10:27:11.210Z,6.60
2018-07-25T10:28:11.152Z,5.70
2018-07-25T10:29:11.157Z,6.50
2018-07-25T10:30:11.160Z,6.10
2018-07-25T10:31:11.216Z,5.80
2018-07-25T10:32:11.190Z,5.80
2018-07-25T10:33:11.176Z,5.80
2018-07-25T10:34:11.191Z,5.70
2018-07-25T10:35:11.217Z,5.40
2018-07-25T10:36:11.194Z,5.40
2018-07-25T10:37:11.197Z,5.30
2018-07-25T10:38:11.200Z,5.70
2018-07-25T10:39:11.210Z,5.90
2018-07-25T10:40:11.212Z,5.60
2018-07-25T10:41:11.214Z,5.70
2018-07-25T10:42:11.222Z,6.20
2018-07-25T10:43:11.226Z,6.20
2018-07-25T10:44:11.232Z,6.40
2018-07-25T10:45:11.236Z,6.00
2018-07-25T10:46:11.243Z,5.50
2018-07-25T10:47:11.246Z,5.30
2018-07-25T10:48:11.252Z,5.50
2018-07-25T10:49:11.258Z,6.00
2018-07-25T10:50:11.268Z,5.60
2018-07-25T10:51:11.273Z,5.10
2018-07-25T10:52:11.273Z,5.70
2018-07-25T10:53:11.277Z,5.40
2018-07-25T10:54:11.282Z,5.00
2018-07-25T10:55:11.291Z,5.50
2018-07-25T10:56:11.292Z,5.50
2018-07-25T10:57:11.303Z,5.40
2018-07-25T10:58:11.304Z,5.50
2018-07-25T10:59:11.309Z,5.20
2018-07-25T11:00:11.313Z,5.20
2018-07-25T11:01:11.320Z,4.90
2018-07-25T11:02:11.357Z,5.00
2018-07-25T11:03:11.329Z,4.80
2018-07-25T11:04:11.335Z,5.10
2018-07-25T11:05:11.342Z,4.70
2018-07-25T11:06:11.345Z,4.80
2018-07-25T11:07:11.351Z,4.60
2018-07-25T11:08:11.356Z,4.40
2018-07-25T11:09:11.364Z,5.10
2018-07-25T11:10:11.365Z,5.00
2018-07-25T11:11:11.374Z,5.10
2018-07-25T11:12:11.377Z,5.50
2018-07-25T11:13:11.380Z,4.90
2018-07-25T11:14:11.386Z,4.90
2018-07-25T11:15:11.393Z,4.90
2018-07-25T11:16:11.399Z,4.80
2018-07-25T11:17:11.403Z,4.60
2018-07-25T11:18:11.407Z,4.70
2018-07-25T11:19:11.494Z,4.90
2018-07-25T11:20:11.417Z,4.90
2018-07-25T11:21:11.422Z,4.70
2018-07-25T11:22:11.427Z,4.70
2018-07-25T11:23:11.552Z,4.90
2018-07-25T11:24:11.438Z,4.80
2018-07-25T11:25:11.447Z,4.50
2018-07-25T11:26:11.447Z,4.80
2018-07-25T11:27:11.456Z,4.30
2018-07-25T11:28:11.456Z,4.70
2018-07-25T11:29:11.465Z,4.80
2018-07-25T11:30:11.473Z,5.00
2018-07-25T11:31:11.476Z,4.20
2018-07-25T11:32:11.479Z,4.40
2018-07-25T11:33:11.487Z,4.60
2018-07-25T11:34:11.585Z,4.20
2018-07-25T11:35:11.494Z,4.20
2018-07-25T11:36:11.502Z,3.90
2018-07-25T11:37:11.506Z,3.60
2018-07-25T11:38:11.524Z,3.40
2018-07-25T11:39:11.515Z,3.40
2018-07-25T11:40:11.523Z,3.60
2018-07-25T11:41:11.530Z,3.60
2018-07-25T11:42:11.533Z,3.10
2018-07-25T11:43:11.541Z,4.10
2018-07-25T11:44:11.541Z,4.00
2018-07-25T11:45:11.546Z,4.00
2018-07-25T11:46:11.559Z,4.10
2018-07-25T11:47:11.564Z,4.00
2018-07-25T11:48:11.566Z,3.80
2018-07-25T11:49:11.566Z,3.60
2018-07-25T11:50:11.579Z,3.60
2018-07-25T11:51:11.580Z,4.00
2018-07-25T11:52:11.583Z,3.70
2018-07-25T11:53:11.590Z,3.60
2018-07-25T11:54:11.593Z,4.10
2018-07-25T11:55:11.605Z,3.30
2018-07-25T11:56:11.605Z,3.60
2018-07-25T11:57:11.612Z,3.50
2018-07-25T11:58:11.617Z,3.60
2018-07-25T11:59:11.621Z,3.70
2018-07-25T12:00:11.627Z,3.80
2018-07-25T12:01:11.684Z,4.00
2018-07-25T12:02:11.640Z,3.90
2018-07-25T12:03:11.643Z,4.20
2018-07-25T12:04:11.655Z,4.00
2018-07-25T12:05:11.654Z,4.40
2018-07-25T12:06:11.663Z,4.10
2018-07-25T12:07:11.665Z,4.10
2018-07-25T12:08:11.678Z,4.30
2018-07-25T12:09:11.677Z,4.00
2018-07-25T12:10:11.684Z,4.00
2018-07-25T12:11:11.689Z,4.50
2018-07-25T12:12:11.693Z,4.30
2018-07-25T12:13:11.702Z,4.00
2018-07-25T12:14:11.707Z,3.80
2018-07-25T12:15:11.720Z,3.70
2018-07-25T12:16:11.717Z,3.40
2018-07-25T12:17:11.723Z,3.10
2018-07-25T12:18:11.731Z,3.30
2018-07-25T12:19:11.740Z,3.50
2018-07-25T12:20:11.737Z,3.90
2018-07-25T12:21:11.747Z,3.70
2018-07-25T12:22:11.754Z,3.60
2018-07-25T12:23:11.760Z,3.40
2018-07-25T12:24:11.760Z,3.30
2018-07-25T12:25:11.765Z,3.50
2018-07-25T12:26:11.777Z,3.10
2018-07-25T12:27:11.777Z,3.60
2018-07-25T12:28:11.783Z,3.90
2018-07-25T12:29:11.789Z,3.30
2018-07-25T12:30:11.794Z,3.50
2018-07-25T12:31:11.801Z,3.80
2018-07-25T12:32:11.829Z,3.90
2018-07-25T12:33:11.814Z,3.50
2018-07-25T12:34:11.818Z,3.90
2018-07-25T12:35:11.830Z,3.80
2018-07-25T12:36:11.832Z,4.10
2018-07-25T12:37:11.838Z,4.20
2018-07-25T12:38:11.842Z,4.00
2018-07-25T12:39:11.846Z,3.70
2018-07-25T12:40:11.851Z,3.80
2018-07-25T12:41:11.862Z,4.20
2018-07-25T12:42:11.863Z,4.30
2018-07-25T12:43:11.868Z,4.00
2018-07-25T12:44:11.880Z,3.80
2018-07-25T12:45:11.880Z,4.10
2018-07-25T12:46:11.887Z,3.70
2018-07-25T12:47:11.894Z,3.60
2018-07-25T12:48:11.897Z,3.60
2018-07-25T12:49:11.901Z,3.40
2018-07-25T12:50:11.907Z,3.60
2018-07-25T12:51:11.917Z,3.90
2018-07-25T12:52:11.921Z,3.20
2018-07-25T12:53:11.935Z,3.50
2018-07-25T12:54:11.990Z,3.50
2018-07-25T12:55:11.945Z,3.20
2018-07-25T12:56:11.943Z,3.40
2018-07-25T12:57:11.948Z,3.40
2018-07-25T12:58:11.958Z,3.30
2018-07-25T12:59:11.960Z,3.00
2018-07-25T13:00:11.965Z,3.20
2018-07-25T13:01:11.969Z,3.70
2018-07-25T13:02:11.979Z,3.50
2018-07-25T13:03:11.983Z,3.20
2018-07-25T13:04:11.987Z,3.30
2018-07-25T13:05:12.000Z,3.00
2018-07-25T13:06:12.007Z,3.20
2018-07-25T13:07:12.009Z,3.40
2018-07-25T13:08:12.014Z,3.20
2018-07-25T13:09:12.030Z,3.50
2018-07-25T13:10:12.024Z,3.20
2018-07-25T13:11:12.030Z,3.20